Gordon Heights, New York
Current Conditions -  °F | °C
As of 4:56 AM on Thursday 29 Jan 2015 (Local Time) from KHWV Reporting Station
Clear Clear  
Wind Chill: 12°   Ceiling: Unl
Heat Index: 12°   Visibility: 10mi
Dew Point:   Wind: 3mph
Humidity: 64%   Direction: 320°NW
Pressure: 30.3"   Gusts: NA
Location:  40.8228°N, 72.9822°W
Report Text: KHWV 290956Z AUTO 32003KT 10SM CLR M11/M17 A3030 RMK AO2 SLP261 T11111167 TSNO
Loading
Personal Weather Stations






























Interactive Weather Map New forecast layout! Learn more

10-Day Weather Forecast

Advertisements
Track Severe Weather on mobile